Time,TemperatureF,DewpointF,PressureIn,WindDirection,WindDirectionDegrees,WindSpeedMPH,WindSpeedGustMPH,Humidity,HourlyPrecipIn,Conditions,Clouds,dailyrainin,SoftwareType,DateUTC
2013-08-29 00:00:00,72.0,68.6,29.77,WNW,292,4.0,14.0,89,0.00,,,-99.99,WeatherLink 5.6,2013-08-29 04:00:00,
2013-08-29 00:30:00,71.6,68.5,29.76,WNW,292,3.0,14.0,90,0.00,,,-99.99,WeatherLink 5.6,2013-08-29 04:30:00,
2013-08-29 01:00:00,71.6,68.5,29.75,West,270,4.0,14.0,90,0.00,,,-99.99,WeatherLink 5.6,2013-08-29 05:00:00,
2013-08-29 01:30:00,71.7,68.6,29.75,WNW,292,3.0,12.0,90,0.00,,,-99.99,WeatherLink 5.6,2013-08-29 05:30:00,
2013-08-29 02:00:00,71.3,68.2,29.75,West,270,4.0,17.0,90,0.00,,,-99.99,WeatherLink 5.6,2013-08-29 06:00:00,
2013-08-29 02:30:00,71.0,68.2,29.75,NW,315,4.0,12.0,91,0.00,,,-99.99,WeatherLink 5.6,2013-08-29 06:30:00,
2013-08-29 03:00:00,70.9,68.1,29.74,WNW,292,6.0,14.0,91,0.00,,,-99.99,WeatherLink 5.6,2013-08-29 07:00:00,
2013-08-29 03:30:00,70.6,68.2,29.75,NW,315,5.0,14.0,92,0.00,,,-99.99,WeatherLink 5.6,2013-08-29 07:30:00,
2013-08-29 04:00:00,70.2,67.8,29.74,WNW,292,4.0,12.0,92,0.00,,,-99.99,WeatherLink 5.6,2013-08-29 08:00:00,
2013-08-29 04:30:00,69.7,67.6,29.75,WNW,292,3.0,11.0,93,0.00,,,-99.99,WeatherLink 5.6,2013-08-29 08:30:00,
2013-08-29 05:00:00,69.5,67.7,29.75,WNW,292,2.0,11.0,94,0.00,,,-99.99,WeatherLink 5.6,2013-08-29 09:00:00,
2013-08-29 05:30:00,68.8,67.3,29.76,West,270,0.0,1.0,95,0.00,,,-99.99,WeatherLink 5.6,2013-08-29 09:30:00,
2013-08-29 06:00:00,69.2,67.7,29.76,North,-999,0.0,0.0,95,0.00,,,-99.99,WeatherLink 5.6,2013-08-29 10:00:00,
2013-08-29 06:30:00,69.4,67.9,29.77,West,270,0.0,4.0,95,0.00,,,-99.99,WeatherLink 5.6,2013-08-29 10:30:00,
2013-08-29 07:00:00,69.3,67.8,29.77,NW,315,0.0,5.0,95,0.00,,,-99.99,WeatherLink 5.6,2013-08-29 11:00:00,
2013-08-29 07:30:00,69.4,67.9,29.78,NW,315,1.0,7.0,95,0.00,,,-99.99,WeatherLink 5.6,2013-08-29 11:30:00,
2013-08-29 08:00:00,69.4,68.2,29.80,NW,315,1.0,7.0,96,0.00,,,-99.99,WeatherLink 5.6,2013-08-29 12:00:00,
2013-08-29 08:30:00,69.6,68.4,29.80,NW,315,1.0,7.0,96,0.00,,,-99.99,WeatherLink 5.6,2013-08-29 12:30:00,
2013-08-29 09:00:00,69.8,68.6,29.80,West,270,0.0,5.0,96,0.00,,,-99.99,WeatherLink 5.6,2013-08-29 13:00:00,
2013-08-29 09:30:00,69.9,68.7,29.81,WNW,292,0.0,2.0,96,0.00,,,-99.99,WeatherLink 5.6,2013-08-29 13:30:00,
2013-08-29 10:00:00,70.7,69.2,29.81,NW,315,0.0,3.0,95,0.00,,,-99.99,WeatherLink 5.6,2013-08-29 14:00:00,
2013-08-29 10:30:00,72.6,70.1,29.81,West,270,2.0,7.0,92,0.00,,,-99.99,WeatherLink 5.6,2013-08-29 14:30:00,
2013-08-29 11:00:00,73.9,70.8,29.81,West,270,1.0,6.0,90,0.00,,,-99.99,WeatherLink 5.6,2013-08-29 15:00:00,
2013-08-29 11:30:00,75.7,71.2,29.80,West,270,1.0,7.0,86,0.00,,,-99.99,WeatherLink 5.6,2013-08-29 15:30:00,
2013-08-29 12:00:00,73.9,69.4,29.81,WNW,292,1.0,7.0,86,0.00,,,-99.99,WeatherLink 5.6,2013-08-29 16:00:00,
2013-08-29 12:30:00,77.3,71.7,29.80,WNW,292,0.0,7.0,83,0.00,,,-99.99,WeatherLink 5.6,2013-08-29 16:30:00,
2013-08-29 13:00:00,76.4,70.5,29.79,NW,315,1.0,6.0,82,0.00,,,-99.99,WeatherLink 5.6,2013-08-29 17:00:00,
2013-08-29 13:30:00,78.0,69.4,29.78,NW,315,1.0,7.0,75,0.00,,,-99.99,WeatherLink 5.6,2013-08-29 17:30:00,
2013-08-29 14:00:00,78.5,69.5,29.78,WNW,292,1.0,7.0,74,0.00,,,-99.99,WeatherLink 5.6,2013-08-29 18:00:00,
2013-08-29 14:30:00,78.0,70.6,29.78,West,270,1.0,7.0,78,0.00,,,-99.99,WeatherLink 5.6,2013-08-29 18:30:00,
2013-08-29 15:00:00,76.9,70.6,29.77,WNW,292,1.0,8.0,81,0.00,,,-99.99,WeatherLink 5.6,2013-08-29 19:00:00,
2013-08-29 15:30:00,77.0,70.0,29.78,West,270,0.0,6.0,79,0.00,,,-99.99,WeatherLink 5.6,2013-08-29 19:30:00,
2013-08-29 16:00:00,78.2,70.8,29.77,WNW,292,1.0,7.0,78,0.00,,,-99.99,WeatherLink 5.6,2013-08-29 20:00:00,
2013-08-29 16:30:00,78.6,70.0,29.77,NNE,22,1.0,7.0,75,0.00,,,-99.99,WeatherLink 5.6,2013-08-29 20:30:00,
2013-08-29 17:00:00,78.4,69.8,29.77,NNE,22,0.0,10.0,75,0.00,,,-99.99,WeatherLink 5.6,2013-08-29 21:00:00,
2013-08-29 17:30:00,77.7,69.9,29.77,WNW,292,1.0,8.0,77,0.00,,,-99.99,WeatherLink 5.6,2013-08-29 21:30:00,
2013-08-29 18:00:00,77.5,69.3,29.77,NE,45,0.0,3.0,76,0.00,,,-99.99,WeatherLink 5.6,2013-08-29 22:00:00,
2013-08-29 18:30:00,77.2,69.8,29.77,North,0,0.0,3.0,78,0.00,,,-99.99,WeatherLink 5.6,2013-08-29 22:30:00,
2013-08-29 19:00:00,76.4,69.8,29.77,North,0,0.0,3.0,80,0.00,,,-99.99,WeatherLink 5.6,2013-08-29 23:00:00,
2013-08-29 19:30:00,74.1,68.6,29.78,WSW,247,0.0,1.0,83,0.00,,,-99.99,WeatherLink 5.6,2013-08-29 23:30:00,
2013-08-29 20:00:00,71.9,68.2,29.81,North,0,0.0,3.0,88,0.00,,,-99.99,WeatherLink 5.6,2013-08-30 00:00:00,
2013-08-29 20:30:00,71.3,68.2,29.82,NW,315,0.0,5.0,90,0.00,,,-99.99,WeatherLink 5.6,2013-08-30 00:30:00,
2013-08-29 21:00:00,70.7,68.3,29.82,NNW,337,0.0,4.0,92,0.00,,,-99.99,WeatherLink 5.6,2013-08-30 01:00:00,
2013-08-29 21:30:00,70.4,68.0,29.84,North,-999,0.0,0.0,92,0.00,,,-99.99,WeatherLink 5.6,2013-08-30 01:30:00,
2013-08-29 22:00:00,69.7,67.6,29.83,North,-999,0.0,0.0,93,0.00,,,-99.99,WeatherLink 5.6,2013-08-30 02:00:00,
2013-08-29 22:30:00,70.0,68.2,29.81,North,0,0.0,2.0,94,0.00,,,-99.99,WeatherLink 5.6,2013-08-30 02:30:00,
2013-08-29 23:00:00,69.4,67.6,29.82,North,-999,0.0,0.0,94,0.00,,,-99.99,WeatherLink 5.6,2013-08-30 03:00:00,
2013-08-29 23:30:00,69.2,67.7,29.82,North,-999,0.0,0.0,95,0.00,,,-99.99,WeatherLink 5.6,2013-08-30 03:30:00,